sensor_id;sensor_type;location;lat;lon;timestamp;temperature;humidity
20891;DHT22;10605;52.968;8.844;2023-09-19T00:00:20;16.40;99.90
20891;DHT22;10605;52.968;8.844;2023-09-19T00:03:06;16.40;99.90
20891;DHT22;10605;52.968;8.844;2023-09-19T00:05:35;16.30;99.90
20891;DHT22;10605;52.968;8.844;2023-09-19T00:08:01;16.30;99.90
20891;DHT22;10605;52.968;8.844;2023-09-19T00:10:30;16.30;99.90
20891;DHT22;10605;52.968;8.844;2023-09-19T00:13:01;16.30;99.90
20891;DHT22;10605;52.968;8.844;2023-09-19T00:15:35;16.30;99.90
20891;DHT22;10605;52.968;8.844;2023-09-19T00:18:01;16.30;99.90
20891;DHT22;10605;52.968;8.844;2023-09-19T00:20:27;16.20;99.90
20891;DHT22;10605;52.968;8.844;2023-09-19T00:22:58;16.30;99.90
20891;DHT22;10605;52.968;8.844;2023-09-19T00:25:31;16.30;99.90
20891;DHT22;10605;52.968;8.844;2023-09-19T00:27:57;16.30;99.90
20891;DHT22;10605;52.968;8.844;2023-09-19T00:30:23;16.40;99.90
20891;DHT22;10605;52.968;8.844;2023-09-19T00:32:50;16.40;99.90
20891;DHT22;10605;52.968;8.844;2023-09-19T00:35:23;16.40;99.90
20891;DHT22;10605;52.968;8.844;2023-09-19T00:37:53;16.40;99.90
20891;DHT22;10605;52.968;8.844;2023-09-19T00:40:18;16.40;99.90
20891;DHT22;10605;52.968;8.844;2023-09-19T00:42:45;16.50;99.90
20891;DHT22;10605;52.968;8.844;2023-09-19T00:45:13;16.50;99.90
20891;DHT22;10605;52.968;8.844;2023-09-19T00:47:44;16.50;99.90
20891;DHT22;10605;52.968;8.844;2023-09-19T00:50:15;16.40;99.90
20891;DHT22;10605;52.968;8.844;2023-09-19T00:52:43;16.40;99.90
20891;DHT22;10605;52.968;8.844;2023-09-19T00:55:10;16.40;99.90
20891;DHT22;10605;52.968;8.844;2023-09-19T00:57:38;16.40;99.90
20891;DHT22;10605;52.968;8.844;2023-09-19T01:00:05;16.30;99.90
20891;DHT22;10605;52.968;8.844;2023-09-19T01:02:33;16.30;99.90
20891;DHT22;10605;52.968;8.844;2023-09-19T01:04:59;16.30;99.90
20891;DHT22;10605;52.968;8.844;2023-09-19T01:07:27;16.30;99.90
20891;DHT22;10605;52.968;8.844;2023-09-19T01:09:56;16.40;99.90
20891;DHT22;10605;52.968;8.844;2023-09-19T01:12:32;16.40;99.90
20891;DHT22;10605;52.968;8.844;2023-09-19T01:17:57;16.40;99.90
20891;DHT22;10605;52.968;8.844;2023-09-19T01:31:04;15.80;99.90
20891;DHT22;10605;52.968;8.844;2023-09-19T01:34:01;15.60;99.90
20891;DHT22;10605;52.968;8.844;2023-09-19T01:36:29;15.40;99.90
20891;DHT22;10605;52.968;8.844;2023-09-19T01:38:55;15.30;99.90
20891;DHT22;10605;52.968;8.844;2023-09-19T01:41:45;15.30;99.90
20891;DHT22;10605;52.968;8.844;2023-09-19T01:44:24;15.30;99.90
20891;DHT22;10605;52.968;8.844;2023-09-19T01:46:52;15.10;99.90
20891;DHT22;10605;52.968;8.844;2023-09-19T01:49:56;15.10;99.90
20891;DHT22;10605;52.968;8.844;2023-09-19T01:52:29;15.00;99.90
20891;DHT22;10605;52.968;8.844;2023-09-19T01:55:08;14.90;99.90
20891;DHT22;10605;52.968;8.844;2023-09-19T02:00:08;14.90;99.90
20891;DHT22;10605;52.968;8.844;2023-09-19T02:02:38;14.90;99.90
20891;DHT22;10605;52.968;8.844;2023-09-19T02:05:05;14.80;99.90
20891;DHT22;10605;52.968;8.844;2023-09-19T02:07:32;14.80;99.90
20891;DHT22;10605;52.968;8.844;2023-09-19T02:10:00;14.90;99.90
20891;DHT22;10605;52.968;8.844;2023-09-19T02:12:26;14.80;99.90
20891;DHT22;10605;52.968;8.844;2023-09-19T02:14:53;14.80;99.90
20891;DHT22;10605;52.968;8.844;2023-09-19T02:17:18;14.70;99.90
20891;DHT22;10605;52.968;8.844;2023-09-19T02:19:44;14.70;99.90
20891;DHT22;10605;52.968;8.844;2023-09-19T02:22:10;14.70;99.90
20891;DHT22;10605;52.968;8.844;2023-09-19T02:24:37;14.70;99.90
20891;DHT22;10605;52.968;8.844;2023-09-19T02:27:04;14.70;99.90
20891;DHT22;10605;52.968;8.844;2023-09-19T02:29:31;14.70;99.90
20891;DHT22;10605;52.968;8.844;2023-09-19T02:31:59;14.60;99.90
20891;DHT22;10605;52.968;8.844;2023-09-19T02:34:27;14.60;99.90
20891;DHT22;10605;52.968;8.844;2023-09-19T02:36:53;14.60;99.90
20891;DHT22;10605;52.968;8.844;2023-09-19T02:39:23;14.60;99.90
20891;DHT22;10605;52.968;8.844;2023-09-19T02:41:49;14.60;99.90
20891;DHT22;10605;52.968;8.844;2023-09-19T02:44:15;14.60;99.90
20891;DHT22;10605;52.968;8.844;2023-09-19T02:46:41;14.60;99.90
20891;DHT22;10605;52.968;8.844;2023-09-19T02:49:09;14.50;99.90
20891;DHT22;10605;52.968;8.844;2023-09-19T02:51:35;14.60;99.90
20891;DHT22;10605;52.968;8.844;2023-09-19T02:54:01;14.50;99.90
20891;DHT22;10605;52.968;8.844;2023-09-19T02:56:28;14.60;99.90
20891;DHT22;10605;52.968;8.844;2023-09-19T02:58:55;14.60;99.90
20891;DHT22;10605;52.968;8.844;2023-09-19T03:01:21;14.50;99.90
20891;DHT22;10605;52.968;8.844;2023-09-19T03:03:47;14.50;99.90
20891;DHT22;10605;52.968;8.844;2023-09-19T03:06:13;14.40;99.90
20891;DHT22;10605;52.968;8.844;2023-09-19T03:08:40;14.40;99.90
20891;DHT22;10605;52.968;8.844;2023-09-19T03:11:09;14.30;99.90
20891;DHT22;10605;52.968;8.844;2023-09-19T03:13:36;14.30;99.90
20891;DHT22;10605;52.968;8.844;2023-09-19T03:16:04;14.30;99.90
20891;DHT22;10605;52.968;8.844;2023-09-19T03:18:34;14.30;99.90
20891;DHT22;10605;52.968;8.844;2023-09-19T03:21:03;14.20;99.90
20891;DHT22;10605;52.968;8.844;2023-09-19T03:23:29;14.20;99.90
20891;DHT22;10605;52.968;8.844;2023-09-19T03:25:58;14.20;99.90
20891;DHT22;10605;52.968;8.844;2023-09-19T03:28:24;14.20;99.90
20891;DHT22;10605;52.968;8.844;2023-09-19T03:31:04;14.10;99.90
20891;DHT22;10605;52.968;8.844;2023-09-19T03:33:30;14.00;99.90
20891;DHT22;10605;52.968;8.844;2023-09-19T03:36:00;14.10;99.90
20891;DHT22;10605;52.968;8.844;2023-09-19T03:38:27;14.10;99.90
20891;DHT22;10605;52.968;8.844;2023-09-19T03:40:54;14.10;99.90
20891;DHT22;10605;52.968;8.844;2023-09-19T03:43:22;14.00;99.90
20891;DHT22;10605;52.968;8.844;2023-09-19T03:45:48;14.00;99.90
20891;DHT22;10605;52.968;8.844;2023-09-19T03:48:14;14.00;99.90
20891;DHT22;10605;52.968;8.844;2023-09-19T03:50:40;14.00;99.90
20891;DHT22;10605;52.968;8.844;2023-09-19T03:53:06;14.00;99.90
20891;DHT22;10605;52.968;8.844;2023-09-19T03:55:34;14.00;99.90
20891;DHT22;10605;52.968;8.844;2023-09-19T03:58:04;14.00;99.90
20891;DHT22;10605;52.968;8.844;2023-09-19T04:00:30;14.00;99.90
20891;DHT22;10605;52.968;8.844;2023-09-19T04:02:56;14.10;99.90
20891;DHT22;10605;52.968;8.844;2023-09-19T04:05:23;14.10;99.90
20891;DHT22;10605;52.968;8.844;2023-09-19T04:07:49;14.10;99.90
20891;DHT22;10605;52.968;8.844;2023-09-19T04:10:16;14.10;99.90
20891;DHT22;10605;52.968;8.844;2023-09-19T04:12:53;14.10;99.90
20891;DHT22;10605;52.968;8.844;2023-09-19T04:15:19;14.20;99.90
20891;DHT22;10605;52.968;8.844;2023-09-19T04:17:45;14.10;99.90
20891;DHT22;10605;52.968;8.844;2023-09-19T04:20:10;14.10;99.90
20891;DHT22;10605;52.968;8.844;2023-09-19T04:22:38;14.10;99.90
20891;DHT22;10605;52.968;8.844;2023-09-19T04:25:05;14.10;99.90
20891;DHT22;10605;52.968;8.844;2023-09-19T04:27:35;14.10;99.90
20891;DHT22;10605;52.968;8.844;2023-09-19T04:30:00;14.00;99.90
20891;DHT22;10605;52.968;8.844;2023-09-19T04:32:35;14.00;99.90
20891;DHT22;10605;52.968;8.844;2023-09-19T04:35:01;14.00;99.90
20891;DHT22;10605;52.968;8.844;2023-09-19T04:37:31;14.00;99.90
20891;DHT22;10605;52.968;8.844;2023-09-19T04:39:56;14.00;99.90
20891;DHT22;10605;52.968;8.844;2023-09-19T04:42:22;14.00;99.90
20891;DHT22;10605;52.968;8.844;2023-09-19T04:44:53;13.90;99.90
20891;DHT22;10605;52.968;8.844;2023-09-19T04:47:22;13.90;99.90
20891;DHT22;10605;52.968;8.844;2023-09-19T04:49:48;13.90;99.90
20891;DHT22;10605;52.968;8.844;2023-09-19T04:52:13;13.90;99.90
20891;DHT22;10605;52.968;8.844;2023-09-19T04:54:40;13.90;99.90
20891;DHT22;10605;52.968;8.844;2023-09-19T04:57:07;13.90;99.90
20891;DHT22;10605;52.968;8.844;2023-09-19T04:59:32;13.90;99.90
20891;DHT22;10605;52.968;8.844;2023-09-19T05:01:58;13.90;99.90
20891;DHT22;10605;52.968;8.844;2023-09-19T05:04:24;13.90;99.90
20891;DHT22;10605;52.968;8.844;2023-09-19T05:06:50;13.90;99.90
20891;DHT22;10605;52.968;8.844;2023-09-19T05:09:16;13.90;99.90
20891;DHT22;10605;52.968;8.844;2023-09-19T05:11:45;13.90;99.90
20891;DHT22;10605;52.968;8.844;2023-09-19T05:14:14;13.90;99.90
20891;DHT22;10605;52.968;8.844;2023-09-19T05:16:39;14.00;99.90
20891;DHT22;10605;52.968;8.844;2023-09-19T05:19:05;14.00;99.90
20891;DHT22;10605;52.968;8.844;2023-09-19T05:21:31;14.10;99.90
20891;DHT22;10605;52.968;8.844;2023-09-19T05:23:58;14.10;99.90
20891;DHT22;10605;52.968;8.844;2023-09-19T05:26:24;14.10;99.90
20891;DHT22;10605;52.968;8.844;2023-09-19T05:28:50;14.20;99.90
20891;DHT22;10605;52.968;8.844;2023-09-19T05:31:16;14.20;99.90
20891;DHT22;10605;52.968;8.844;2023-09-19T05:33:42;14.30;99.90
20891;DHT22;10605;52.968;8.844;2023-09-19T05:36:08;14.40;99.90
20891;DHT22;10605;52.968;8.844;2023-09-19T05:38:36;14.50;99.90
20891;DHT22;10605;52.968;8.844;2023-09-19T05:41:02;14.60;99.90
20891;DHT22;10605;52.968;8.844;2023-09-19T05:43:28;14.70;99.90
20891;DHT22;10605;52.968;8.844;2023-09-19T05:45:53;14.90;99.90
20891;DHT22;10605;52.968;8.844;2023-09-19T05:48:22;15.10;99.90
20891;DHT22;10605;52.968;8.844;2023-09-19T05:50:47;15.30;99.90
20891;DHT22;10605;52.968;8.844;2023-09-19T05:53:14;15.50;99.90
20891;DHT22;10605;52.968;8.844;2023-09-19T05:55:40;15.90;99.90
20891;DHT22;10605;52.968;8.844;2023-09-19T05:58:06;16.00;99.90
20891;DHT22;10605;52.968;8.844;2023-09-19T06:00:32;15.90;99.90
20891;DHT22;10605;52.968;8.844;2023-09-19T06:03:00;15.90;99.90
20891;DHT22;10605;52.968;8.844;2023-09-19T06:05:27;16.00;99.90
20891;DHT22;10605;52.968;8.844;2023-09-19T06:07:53;16.20;99.90
20891;DHT22;10605;52.968;8.844;2023-09-19T06:10:20;16.20;99.90
20891;DHT22;10605;52.968;8.844;2023-09-19T06:12:48;16.20;99.90
20891;DHT22;10605;52.968;8.844;2023-09-19T06:15:15;16.10;99.90
20891;DHT22;10605;52.968;8.844;2023-09-19T06:17:48;16.00;99.90
20891;DHT22;10605;52.968;8.844;2023-09-19T06:20:14;15.90;99.90
20891;DHT22;10605;52.968;8.844;2023-09-19T06:22:45;15.90;99.90
20891;DHT22;10605;52.968;8.844;2023-09-19T06:25:11;16.00;99.90
20891;DHT22;10605;52.968;8.844;2023-09-19T06:27:41;16.00;99.90
20891;DHT22;10605;52.968;8.844;2023-09-19T06:30:09;16.00;99.90
20891;DHT22;10605;52.968;8.844;2023-09-19T06:32:35;15.90;99.90
20891;DHT22;10605;52.968;8.844;2023-09-19T06:35:04;15.90;99.90
20891;DHT22;10605;52.968;8.844;2023-09-19T06:37:33;15.90;99.90
20891;DHT22;10605;52.968;8.844;2023-09-19T06:40:00;15.90;99.90
20891;DHT22;10605;52.968;8.844;2023-09-19T06:42:26;15.70;99.90
20891;DHT22;10605;52.968;8.844;2023-09-19T06:44:53;15.90;99.90
20891;DHT22;10605;52.968;8.844;2023-09-19T06:47:19;16.20;99.90
20891;DHT22;10605;52.968;8.844;2023-09-19T06:49:45;16.20;99.90
20891;DHT22;10605;52.968;8.844;2023-09-19T06:52:11;16.40;99.90
20891;DHT22;10605;52.968;8.844;2023-09-19T06:54:37;16.50;99.90
20891;DHT22;10605;52.968;8.844;2023-09-19T06:57:03;16.70;99.90
20891;DHT22;10605;52.968;8.844;2023-09-19T06:59:29;16.90;99.90
20891;DHT22;10605;52.968;8.844;2023-09-19T07:01:54;17.30;99.90
20891;DHT22;10605;52.968;8.844;2023-09-19T07:04:20;17.40;99.90
20891;DHT22;10605;52.968;8.844;2023-09-19T07:06:52;17.40;99.90
20891;DHT22;10605;52.968;8.844;2023-09-19T07:09:17;17.30;99.90
20891;DHT22;10605;52.968;8.844;2023-09-19T07:11:45;17.10;99.90
20891;DHT22;10605;52.968;8.844;2023-09-19T07:14:11;16.90;99.90
20891;DHT22;10605;52.968;8.844;2023-09-19T07:16:40;16.80;99.90
20891;DHT22;10605;52.968;8.844;2023-09-19T07:19:08;17.00;99.90
20891;DHT22;10605;52.968;8.844;2023-09-19T07:21:33;17.20;99.90
20891;DHT22;10605;52.968;8.844;2023-09-19T07:24:03;18.00;99.90
20891;DHT22;10605;52.968;8.844;2023-09-19T07:26:29;18.90;99.90
20891;DHT22;10605;52.968;8.844;2023-09-19T07:28:54;19.50;99.90
20891;DHT22;10605;52.968;8.844;2023-09-19T07:31:21;20.20;99.90
20891;DHT22;10605;52.968;8.844;2023-09-19T07:33:49;20.50;99.90
20891;DHT22;10605;52.968;8.844;2023-09-19T07:36:15;20.50;99.90
20891;DHT22;10605;52.968;8.844;2023-09-19T07:38:41;20.60;99.90
20891;DHT22;10605;52.968;8.844;2023-09-19T07:41:08;21.10;99.90
20891;DHT22;10605;52.968;8.844;2023-09-19T07:43:35;21.10;99.90
20891;DHT22;10605;52.968;8.844;2023-09-19T07:46:07;21.40;99.90
20891;DHT22;10605;52.968;8.844;2023-09-19T07:48:37;21.80;99.90
20891;DHT22;10605;52.968;8.844;2023-09-19T07:51:07;22.00;99.90
20891;DHT22;10605;52.968;8.844;2023-09-19T07:53:35;21.70;99.90
20891;DHT22;10605;52.968;8.844;2023-09-19T07:56:05;21.60;99.90
20891;DHT22;10605;52.968;8.844;2023-09-19T07:58:32;21.80;99.90
20891;DHT22;10605;52.968;8.844;2023-09-19T08:01:08;21.60;99.90
20891;DHT22;10605;52.968;8.844;2023-09-19T08:03:38;21.70;99.90
20891;DHT22;10605;52.968;8.844;2023-09-19T08:06:07;22.10;99.90
20891;DHT22;10605;52.968;8.844;2023-09-19T08:08:34;22.10;99.90
20891;DHT22;10605;52.968;8.844;2023-09-19T08:11:06;21.90;99.90
20891;DHT22;10605;52.968;8.844;2023-09-19T08:13:46;21.90;99.90
20891;DHT22;10605;52.968;8.844;2023-09-19T08:16:15;21.60;99.90
20891;DHT22;10605;52.968;8.844;2023-09-19T08:18:41;21.70;99.90
20891;DHT22;10605;52.968;8.844;2023-09-19T08:21:11;22.10;99.90
20891;DHT22;10605;52.968;8.844;2023-09-19T08:23:37;22.30;99.90
20891;DHT22;10605;52.968;8.844;2023-09-19T08:26:07;22.80;99.90
20891;DHT22;10605;52.968;8.844;2023-09-19T08:28:34;21.90;99.90
20891;DHT22;10605;52.968;8.844;2023-09-19T08:31:06;21.70;99.90
20891;DHT22;10605;52.968;8.844;2023-09-19T08:33:36;22.00;99.90
20891;DHT22;10605;52.968;8.844;2023-09-19T08:36:05;22.50;99.90
20891;DHT22;10605;52.968;8.844;2023-09-19T08:38:33;22.60;99.90
20891;DHT22;10605;52.968;8.844;2023-09-19T08:40:59;21.90;99.90
20891;DHT22;10605;52.968;8.844;2023-09-19T08:43:28;21.80;99.90
20891;DHT22;10605;52.968;8.844;2023-09-19T08:46:09;22.20;99.90
20891;DHT22;10605;52.968;8.844;2023-09-19T08:48:39;22.20;99.90
20891;DHT22;10605;52.968;8.844;2023-09-19T08:51:28;22.90;99.90
20891;DHT22;10605;52.968;8.844;2023-09-19T08:56:32;23.20;99.90
20891;DHT22;10605;52.968;8.844;2023-09-19T08:59:07;23.00;99.90
20891;DHT22;10605;52.968;8.844;2023-09-19T09:01:41;22.80;99.90
20891;DHT22;10605;52.968;8.844;2023-09-19T09:04:11;22.80;99.90
20891;DHT22;10605;52.968;8.844;2023-09-19T09:06:39;22.30;99.90
20891;DHT22;10605;52.968;8.844;2023-09-19T09:09:08;22.10;99.90
20891;DHT22;10605;52.968;8.844;2023-09-19T09:11:35;22.40;99.90
20891;DHT22;10605;52.968;8.844;2023-09-19T09:14:06;22.50;99.90
20891;DHT22;10605;52.968;8.844;2023-09-19T09:16:32;22.90;99.90
20891;DHT22;10605;52.968;8.844;2023-09-19T09:19:04;23.10;99.90
20891;DHT22;10605;52.968;8.844;2023-09-19T09:21:30;23.30;99.90
20891;DHT22;10605;52.968;8.844;2023-09-19T09:24:27;23.80;99.90
20891;DHT22;10605;52.968;8.844;2023-09-19T09:26:57;24.20;99.90
20891;DHT22;10605;52.968;8.844;2023-09-19T09:29:41;24.50;99.90
20891;DHT22;10605;52.968;8.844;2023-09-19T09:32:21;23.80;99.90
20891;DHT22;10605;52.968;8.844;2023-09-19T09:34:51;23.70;99.90
20891;DHT22;10605;52.968;8.844;2023-09-19T09:37:18;23.50;99.90
20891;DHT22;10605;52.968;8.844;2023-09-19T09:40:03;23.90;99.90
20891;DHT22;10605;52.968;8.844;2023-09-19T09:42:40;23.60;99.90
20891;DHT22;10605;52.968;8.844;2023-09-19T09:45:19;24.00;99.90
20891;DHT22;10605;52.968;8.844;2023-09-19T09:48:03;23.60;99.90
20891;DHT22;10605;52.968;8.844;2023-09-19T09:50:34;24.20;99.90
20891;DHT22;10605;52.968;8.844;2023-09-19T09:53:28;23.70;99.90
20891;DHT22;10605;52.968;8.844;2023-09-19T09:56:12;23.80;99.90
20891;DHT22;10605;52.968;8.844;2023-09-19T09:58:49;23.70;99.90
20891;DHT22;10605;52.968;8.844;2023-09-19T10:01:16;24.00;99.90
20891;DHT22;10605;52.968;8.844;2023-09-19T10:03:43;23.60;99.90
20891;DHT22;10605;52.968;8.844;2023-09-19T10:06:22;23.70;99.90
20891;DHT22;10605;52.968;8.844;2023-09-19T10:09:04;23.90;99.90
20891;DHT22;10605;52.968;8.844;2023-09-19T10:11:44;24.20;99.90
20891;DHT22;10605;52.968;8.844;2023-09-19T10:14:15;24.70;99.90
20891;DHT22;10605;52.968;8.844;2023-09-19T10:16:51;24.20;99.90
20891;DHT22;10605;52.968;8.844;2023-09-19T10:19:30;24.10;99.90
20891;DHT22;10605;52.968;8.844;2023-09-19T10:22:01;23.80;99.90
20891;DHT22;10605;52.968;8.844;2023-09-19T10:24:28;24.20;99.90
20891;DHT22;10605;52.968;8.844;2023-09-19T10:26:57;24.20;99.90
20891;DHT22;10605;52.968;8.844;2023-09-19T10:29:24;24.80;99.90
20891;DHT22;10605;52.968;8.844;2023-09-19T10:31:52;24.70;99.90
20891;DHT22;10605;52.968;8.844;2023-09-19T10:34:20;23.80;99.90
20891;DHT22;10605;52.968;8.844;2023-09-19T10:36:48;23.80;99.90
20891;DHT22;10605;52.968;8.844;2023-09-19T10:39:17;24.90;99.90
20891;DHT22;10605;52.968;8.844;2023-09-19T10:41:53;25.60;99.90
20891;DHT22;10605;52.968;8.844;2023-09-19T10:44:24;26.00;99.90
20891;DHT22;10605;52.968;8.844;2023-09-19T10:46:54;23.90;99.90
20891;DHT22;10605;52.968;8.844;2023-09-19T10:49:21;24.00;99.90
20891;DHT22;10605;52.968;8.844;2023-09-19T10:51:49;24.10;99.90
20891;DHT22;10605;52.968;8.844;2023-09-19T10:54:22;25.60;99.90
20891;DHT22;10605;52.968;8.844;2023-09-19T10:56:52;25.50;99.90
20891;DHT22;10605;52.968;8.844;2023-09-19T10:59:20;25.40;99.90
20891;DHT22;10605;52.968;8.844;2023-09-19T11:01:54;25.20;99.90
20891;DHT22;10605;52.968;8.844;2023-09-19T11:04:31;25.70;99.90
20891;DHT22;10605;52.968;8.844;2023-09-19T11:07:11;25.70;99.90
20891;DHT22;10605;52.968;8.844;2023-09-19T11:15:01;25.60;99.90
20891;DHT22;10605;52.968;8.844;2023-09-19T11:17:39;25.90;99.90
20891;DHT22;10605;52.968;8.844;2023-09-19T11:25:42;25.70;99.40
20891;DHT22;10605;52.968;8.844;2023-09-19T11:28:28;25.60;97.20
20891;DHT22;10605;52.968;8.844;2023-09-19T11:31:00;24.70;97.70
20891;DHT22;10605;52.968;8.844;2023-09-19T11:36:53;24.20;99.90
20891;DHT22;10605;52.968;8.844;2023-09-19T11:39:25;25.10;99.90
20891;DHT22;10605;52.968;8.844;2023-09-19T11:41:52;24.00;99.90
20891;DHT22;10605;52.968;8.844;2023-09-19T11:44:31;23.40;99.90
20891;DHT22;10605;52.968;8.844;2023-09-19T11:47:02;24.00;99.90
20891;DHT22;10605;52.968;8.844;2023-09-19T11:49:32;23.80;99.90
20891;DHT22;10605;52.968;8.844;2023-09-19T11:52:01;23.50;99.90
20891;DHT22;10605;52.968;8.844;2023-09-19T11:54:27;25.00;99.70
20891;DHT22;10605;52.968;8.844;2023-09-19T11:56:57;25.30;98.80
20891;DHT22;10605;52.968;8.844;2023-09-19T11:59:28;25.90;98.50
20891;DHT22;10605;52.968;8.844;2023-09-19T12:02:04;25.90;96.30
20891;DHT22;10605;52.968;8.844;2023-09-19T12:04:44;24.80;96.60
20891;DHT22;10605;52.968;8.844;2023-09-19T12:07:15;25.10;97.80
20891;DHT22;10605;52.968;8.844;2023-09-19T12:09:46;23.90;97.40
20891;DHT22;10605;52.968;8.844;2023-09-19T12:12:26;23.80;99.90
20891;DHT22;10605;52.968;8.844;2023-09-19T12:14:59;24.30;99.70
20891;DHT22;10605;52.968;8.844;2023-09-19T12:17:36;25.00;98.00
20891;DHT22;10605;52.968;8.844;2023-09-19T12:20:04;23.80;97.00
20891;DHT22;10605;52.968;8.844;2023-09-19T12:22:45;24.10;98.40
20891;DHT22;10605;52.968;8.844;2023-09-19T12:25:14;23.70;98.40
20891;DHT22;10605;52.968;8.844;2023-09-19T12:27:47;25.70;95.90
20891;DHT22;10605;52.968;8.844;2023-09-19T12:30:17;26.20;94.50
20891;DHT22;10605;52.968;8.844;2023-09-19T12:32:46;24.70;94.10
20891;DHT22;10605;52.968;8.844;2023-09-19T12:35:30;25.00;94.40
20891;DHT22;10605;52.968;8.844;2023-09-19T12:38:00;24.40;96.60
20891;DHT22;10605;52.968;8.844;2023-09-19T12:40:26;24.20;97.50
20891;DHT22;10605;52.968;8.844;2023-09-19T12:42:59;25.30;95.90
20891;DHT22;10605;52.968;8.844;2023-09-19T12:45:25;26.20;94.60
20891;DHT22;10605;52.968;8.844;2023-09-19T12:48:22;26.50;94.70
20891;DHT22;10605;52.968;8.844;2023-09-19T12:53:44;24.20;98.60
20891;DHT22;10605;52.968;8.844;2023-09-19T12:56:14;23.70;99.90
20891;DHT22;10605;52.968;8.844;2023-09-19T12:58:55;22.80;99.90
20891;DHT22;10605;52.968;8.844;2023-09-19T13:01:21;22.50;99.90
20891;DHT22;10605;52.968;8.844;2023-09-19T13:04:21;22.30;99.90
20891;DHT22;10605;52.968;8.844;2023-09-19T13:06:56;22.30;99.90
20891;DHT22;10605;52.968;8.844;2023-09-19T13:09:27;22.10;99.90
20891;DHT22;10605;52.968;8.844;2023-09-19T13:12:06;22.10;99.90
20891;DHT22;10605;52.968;8.844;2023-09-19T13:15:08;22.00;99.90
20891;DHT22;10605;52.968;8.844;2023-09-19T13:17:48;22.50;99.90
20891;DHT22;10605;52.968;8.844;2023-09-19T13:20:29;22.30;99.90
20891;DHT22;10605;52.968;8.844;2023-09-19T13:22:58;22.50;99.90
20891;DHT22;10605;52.968;8.844;2023-09-19T13:25:28;22.60;99.90
20891;DHT22;10605;52.968;8.844;2023-09-19T13:27:57;22.80;99.90
20891;DHT22;10605;52.968;8.844;2023-09-19T13:30:30;22.80;99.90
20891;DHT22;10605;52.968;8.844;2023-09-19T13:33:08;22.70;99.90
20891;DHT22;10605;52.968;8.844;2023-09-19T13:35:35;22.80;99.90
20891;DHT22;10605;52.968;8.844;2023-09-19T13:38:06;22.90;99.90
20891;DHT22;10605;52.968;8.844;2023-09-19T13:40:38;22.90;99.90
20891;DHT22;10605;52.968;8.844;2023-09-19T13:43:05;22.80;99.90
20891;DHT22;10605;52.968;8.844;2023-09-19T13:45:32;22.60;99.90
20891;DHT22;10605;52.968;8.844;2023-09-19T13:47:58;22.30;99.90
20891;DHT22;10605;52.968;8.844;2023-09-19T13:50:29;21.80;99.90
20891;DHT22;10605;52.968;8.844;2023-09-19T13:52:57;21.90;99.90
20891;DHT22;10605;52.968;8.844;2023-09-19T13:55:23;21.80;99.90
20891;DHT22;10605;52.968;8.844;2023-09-19T13:57:50;21.70;99.90
20891;DHT22;10605;52.968;8.844;2023-09-19T14:00:18;21.70;99.90
20891;DHT22;10605;52.968;8.844;2023-09-19T14:02:44;21.70;99.90
20891;DHT22;10605;52.968;8.844;2023-09-19T14:05:11;21.80;99.90
20891;DHT22;10605;52.968;8.844;2023-09-19T14:07:46;22.00;99.90
20891;DHT22;10605;52.968;8.844;2023-09-19T14:10:12;22.20;99.90
20891;DHT22;10605;52.968;8.844;2023-09-19T14:12:38;22.20;99.90
20891;DHT22;10605;52.968;8.844;2023-09-19T14:15:09;21.90;99.90
20891;DHT22;10605;52.968;8.844;2023-09-19T14:17:36;21.90;99.90
20891;DHT22;10605;52.968;8.844;2023-09-19T14:20:02;22.40;99.90
20891;DHT22;10605;52.968;8.844;2023-09-19T14:22:30;22.00;99.90
20891;DHT22;10605;52.968;8.844;2023-09-19T14:24:56;21.40;99.90
20891;DHT22;10605;52.968;8.844;2023-09-19T14:27:24;21.10;99.90
20891;DHT22;10605;52.968;8.844;2023-09-19T14:29:54;21.00;99.90
20891;DHT22;10605;52.968;8.844;2023-09-19T14:38:59;20.90;99.90
20891;DHT22;10605;52.968;8.844;2023-09-19T14:41:25;21.10;99.90
20891;DHT22;10605;52.968;8.844;2023-09-19T14:43:54;20.90;99.90
20891;DHT22;10605;52.968;8.844;2023-09-19T14:46:23;20.70;99.90
20891;DHT22;10605;52.968;8.844;2023-09-19T14:48:52;20.60;99.90
20891;DHT22;10605;52.968;8.844;2023-09-19T14:51:18;20.70;99.90
20891;DHT22;10605;52.968;8.844;2023-09-19T14:53:45;21.00;99.90
20891;DHT22;10605;52.968;8.844;2023-09-19T14:56:14;21.10;99.90
20891;DHT22;10605;52.968;8.844;2023-09-19T14:58:44;21.00;99.90
20891;DHT22;10605;52.968;8.844;2023-09-19T15:01:11;21.00;99.90
20891;DHT22;10605;52.968;8.844;2023-09-19T15:03:38;20.80;99.90
20891;DHT22;10605;52.968;8.844;2023-09-19T15:06:08;20.60;99.90
20891;DHT22;10605;52.968;8.844;2023-09-19T15:08:45;20.40;99.90
20891;DHT22;10605;52.968;8.844;2023-09-19T15:11:13;20.20;99.90
20891;DHT22;10605;52.968;8.844;2023-09-19T15:13:41;20.10;99.90
20891;DHT22;10605;52.968;8.844;2023-09-19T15:16:08;20.10;99.90
20891;DHT22;10605;52.968;8.844;2023-09-19T15:18:35;20.20;99.90
20891;DHT22;10605;52.968;8.844;2023-09-19T15:21:06;20.30;99.90
20891;DHT22;10605;52.968;8.844;2023-09-19T15:23:35;20.50;99.90
20891;DHT22;10605;52.968;8.844;2023-09-19T15:26:06;20.60;99.90
20891;DHT22;10605;52.968;8.844;2023-09-19T15:28:32;20.60;99.90
20891;DHT22;10605;52.968;8.844;2023-09-19T15:31:04;20.50;99.90
20891;DHT22;10605;52.968;8.844;2023-09-19T15:33:30;20.40;99.90
20891;DHT22;10605;52.968;8.844;2023-09-19T15:36:11;20.30;99.90
20891;DHT22;10605;52.968;8.844;2023-09-19T15:38:57;20.10;99.90
20891;DHT22;10605;52.968;8.844;2023-09-19T15:41:29;19.90;99.90
20891;DHT22;10605;52.968;8.844;2023-09-19T15:44:10;19.90;99.90
20891;DHT22;10605;52.968;8.844;2023-09-19T15:46:42;20.10;99.90
20891;DHT22;10605;52.968;8.844;2023-09-19T15:49:20;20.10;99.90
20891;DHT22;10605;52.968;8.844;2023-09-19T15:52:02;20.20;99.90
20891;DHT22;10605;52.968;8.844;2023-09-19T15:54:34;20.10;99.90
20891;DHT22;10605;52.968;8.844;2023-09-19T16:00:02;19.80;99.90
20891;DHT22;10605;52.968;8.844;2023-09-19T16:02:30;19.70;99.90
20891;DHT22;10605;52.968;8.844;2023-09-19T16:04:55;19.70;99.90
20891;DHT22;10605;52.968;8.844;2023-09-19T16:07:24;19.60;99.90
20891;DHT22;10605;52.968;8.844;2023-09-19T16:09:49;19.40;99.90
20891;DHT22;10605;52.968;8.844;2023-09-19T16:12:15;19.40;99.90
20891;DHT22;10605;52.968;8.844;2023-09-19T16:14:41;19.30;99.90
20891;DHT22;10605;52.968;8.844;2023-09-19T16:17:07;19.40;99.90
20891;DHT22;10605;52.968;8.844;2023-09-19T16:19:33;19.50;99.90
20891;DHT22;10605;52.968;8.844;2023-09-19T16:21:59;19.40;99.90
20891;DHT22;10605;52.968;8.844;2023-09-19T16:24:25;19.40;99.90
20891;DHT22;10605;52.968;8.844;2023-09-19T16:26:51;19.40;99.90
20891;DHT22;10605;52.968;8.844;2023-09-19T16:29:18;19.50;99.90
20891;DHT22;10605;52.968;8.844;2023-09-19T16:31:44;19.50;99.90